Meriden, WY

11:58 PM MST on February 06, 2016 (GMT -0700)
WY Farm and Ranch, Midway | | Change Station
CLOSE
Current Station
Personal Weather Station
Location: Cheyenne, WY
Elevation: 5705 ft
Nearby Weather Stations

Elev 5705 ft 41.43 °N, 104.44 °W | Updated 13 minutes ago

Partly Cloudy
Partly Cloudy
34.2 °F
Feels Like 24 °F
N
17.0
Wind Variable Wind from WNW

Today
High -- | Low -- °F
--% Chance of Precip.
Yesterday
High -- | Low -- °F
Precip. -- in
Pressure 30.12 in
Visibility 10.0 miles
Clouds Clear
Windchill 24 °F
Dew Point 22 °F
Humidity 61%
Rainfall 0.50 in
Snow Depth Not available.
7:04 AM 5:19 PM
Waning Crescent, 2% visible
METAR K82V 070635Z AUTO 34003KT 10SM CLR 01/M06 A3012 RMK AO2
Pressure 30.12 in
Visibility 10.0 miles
Clouds Clear
Windchill 24 °F
Dew Point 22 °F
Humidity 61%
Rainfall 0.50 in
Snow Depth Not available.
7:04 AM 5:19 PM
Waning Crescent, 2% visible
METAR K82V 070635Z AUTO 34003KT 10SM CLR 01/M06 A3012 RMK AO2

10-Day Weather Forecast

Almanac

Astronomy

Feb. 06, 2016 Rise Set
Actual Time
Civil Twilight
Nautical Twilight
Astronomical Twilight
Moon
Length of Visible Light
Length of Day
Tomorrow will be .
, % of the Moon is Illuminated

Today's Extremes

State Highs State Lows

Community

WunderPhotos

Upload Photos

1,891,174 photos uploaded!

WunderBlog® & News

Nearby

Air Quality

  Air Quality AQ Index Pollutant
Not available.

Snow Depth

Station Depth Elevation

Earthquake Activity

City Distance Mag. Time & Date
Minimum magnitude displayed is 2.5.

Coastal Water Temperatures

Place Temperature

Stations

Nearby Weather Stations

Station Location Temp. Windchill Dew Point Humidity Wind Precip. Elev Updated Type
                   

Watches & Warnings

There are currently no watches in effect.